sensor_id;sensor_type;location;lat;lon;timestamp;pressure;altitude;pressure_sealevel;temperature;humidity
81243;BME280;70716;50.074;14.496;2023-07-20T00:01:33;98467.22;;;17.52;63.30
81243;BME280;70716;50.074;14.496;2023-07-20T00:03:58;98473.41;;;17.45;63.99
81243;BME280;70716;50.074;14.496;2023-07-20T00:06:25;98484.81;;;17.43;63.72
81243;BME280;70716;50.074;14.496;2023-07-20T00:08:55;98477.81;;;17.49;63.67
81243;BME280;70716;50.074;14.496;2023-07-20T00:11:24;98490.06;;;17.52;63.40
81243;BME280;70716;50.074;14.496;2023-07-20T00:13:50;98494.03;;;17.55;63.25
81243;BME280;70716;50.074;14.496;2023-07-20T00:16:16;98501.25;;;17.63;62.90
81243;BME280;70716;50.074;14.496;2023-07-20T00:18:41;98497.50;;;17.74;62.68
81243;BME280;70716;50.074;14.496;2023-07-20T00:21:07;98498.03;;;17.84;62.46
81243;BME280;70716;50.074;14.496;2023-07-20T00:23:32;98500.13;;;17.94;62.38
81243;BME280;70716;50.074;14.496;2023-07-20T00:25:59;98501.38;;;18.00;62.08
81243;BME280;70716;50.074;14.496;2023-07-20T00:28:24;98503.88;;;18.08;62.01
81243;BME280;70716;50.074;14.496;2023-07-20T00:30:49;98504.00;;;18.19;61.99
81243;BME280;70716;50.074;14.496;2023-07-20T00:33:16;98491.75;;;18.17;61.59
81243;BME280;70716;50.074;14.496;2023-07-20T00:35:43;98498.81;;;18.14;61.79
81243;BME280;70716;50.074;14.496;2023-07-20T00:38:08;98500.03;;;18.17;61.94
81243;BME280;70716;50.074;14.496;2023-07-20T00:40:40;98499.63;;;18.14;62.08
81243;BME280;70716;50.074;14.496;2023-07-20T00:43:09;98503.50;;;18.10;62.21
81243;BME280;70716;50.074;14.496;2023-07-20T00:45:36;98494.69;;;18.01;62.43
81243;BME280;70716;50.074;14.496;2023-07-20T00:48:06;98498.69;;;18.03;62.19
81243;BME280;70716;50.074;14.496;2023-07-20T00:50:34;98492.28;;;17.96;62.67
81243;BME280;70716;50.074;14.496;2023-07-20T00:53:00;98501.75;;;17.98;62.88
81243;BME280;70716;50.074;14.496;2023-07-20T00:55:29;98507.59;;;17.93;62.93
81243;BME280;70716;50.074;14.496;2023-07-20T00:57:54;98510.69;;;17.88;62.87
81243;BME280;70716;50.074;14.496;2023-07-20T01:00:19;98512.94;;;17.79;63.21
81243;BME280;70716;50.074;14.496;2023-07-20T01:02:45;98517.16;;;17.73;63.40
81243;BME280;70716;50.074;14.496;2023-07-20T01:05:14;98516.69;;;17.67;63.68
81243;BME280;70716;50.074;14.496;2023-07-20T01:07:53;98515.81;;;17.63;63.37
81243;BME280;70716;50.074;14.496;2023-07-20T01:10:40;98509.41;;;17.56;63.92
81243;BME280;70716;50.074;14.496;2023-07-20T01:13:09;98510.56;;;17.55;63.97
81243;BME280;70716;50.074;14.496;2023-07-20T01:15:38;98509.66;;;17.47;64.67
81243;BME280;70716;50.074;14.496;2023-07-20T01:18:04;98520.19;;;17.41;64.89
81243;BME280;70716;50.074;14.496;2023-07-20T01:20:31;98518.09;;;17.31;65.13
81243;BME280;70716;50.074;14.496;2023-07-20T01:23:32;98518.47;;;17.30;65.25
81243;BME280;70716;50.074;14.496;2023-07-20T01:28:44;98522.22;;;17.44;65.05
81243;BME280;70716;50.074;14.496;2023-07-20T01:31:34;98526.25;;;17.50;64.68
81243;BME280;70716;50.074;14.496;2023-07-20T01:34:02;98526.31;;;17.54;65.53
81243;BME280;70716;50.074;14.496;2023-07-20T01:36:33;98525.13;;;17.55;64.99
81243;BME280;70716;50.074;14.496;2023-07-20T01:38:59;98525.94;;;17.56;64.79
81243;BME280;70716;50.074;14.496;2023-07-20T01:41:25;98527.56;;;17.60;64.60
81243;BME280;70716;50.074;14.496;2023-07-20T01:43:50;98532.72;;;17.62;64.40
81243;BME280;70716;50.074;14.496;2023-07-20T01:46:16;98537.16;;;17.66;64.36
81243;BME280;70716;50.074;14.496;2023-07-20T01:48:42;98550.47;;;17.64;64.98
81243;BME280;70716;50.074;14.496;2023-07-20T01:51:07;98539.72;;;17.56;64.87
81243;BME280;70716;50.074;14.496;2023-07-20T01:53:33;98542.28;;;17.45;64.98
81243;BME280;70716;50.074;14.496;2023-07-20T01:55:59;98542.78;;;17.50;64.93
81243;BME280;70716;50.074;14.496;2023-07-20T01:58:26;98532.97;;;17.53;64.92
81243;BME280;70716;50.074;14.496;2023-07-20T02:00:51;98530.28;;;17.57;64.78
81243;BME280;70716;50.074;14.496;2023-07-20T02:03:17;98531.44;;;17.56;64.97
81243;BME280;70716;50.074;14.496;2023-07-20T02:05:43;98529.84;;;17.55;65.02
81243;BME280;70716;50.074;14.496;2023-07-20T02:08:08;98532.56;;;17.51;64.77
81243;BME280;70716;50.074;14.496;2023-07-20T02:10:34;98534.69;;;17.38;65.38
81243;BME280;70716;50.074;14.496;2023-07-20T02:13:00;98536.50;;;17.27;65.72
81243;BME280;70716;50.074;14.496;2023-07-20T02:15:28;98534.56;;;17.28;65.40
81243;BME280;70716;50.074;14.496;2023-07-20T02:17:54;98521.56;;;17.28;65.66
81243;BME280;70716;50.074;14.496;2023-07-20T02:20:22;98526.66;;;17.26;65.65
81243;BME280;70716;50.074;14.496;2023-07-20T02:22:48;98517.91;;;17.21;65.35
81243;BME280;70716;50.074;14.496;2023-07-20T02:25:14;98526.59;;;17.23;65.33
81243;BME280;70716;50.074;14.496;2023-07-20T02:27:39;98519.94;;;17.24;65.27
81243;BME280;70716;50.074;14.496;2023-07-20T02:30:05;98524.34;;;17.28;65.13
81243;BME280;70716;50.074;14.496;2023-07-20T02:32:34;98524.22;;;17.21;65.54
81243;BME280;70716;50.074;14.496;2023-07-20T02:34:59;98526.03;;;17.13;65.36
81243;BME280;70716;50.074;14.496;2023-07-20T02:37:25;98528.72;;;17.10;65.96
81243;BME280;70716;50.074;14.496;2023-07-20T02:39:50;98527.94;;;17.09;66.07
81243;BME280;70716;50.074;14.496;2023-07-20T02:42:16;98539.31;;;17.08;65.84
81243;BME280;70716;50.074;14.496;2023-07-20T02:44:41;98536.50;;;17.04;66.02
81243;BME280;70716;50.074;14.496;2023-07-20T02:47:07;98537.31;;;17.05;66.47
81243;BME280;70716;50.074;14.496;2023-07-20T02:49:32;98536.31;;;16.94;66.47
81243;BME280;70716;50.074;14.496;2023-07-20T02:51:58;98535.88;;;16.92;66.66
81243;BME280;70716;50.074;14.496;2023-07-20T02:54:23;98538.94;;;16.87;66.84
81243;BME280;70716;50.074;14.496;2023-07-20T02:56:48;98545.97;;;16.84;67.22
81243;BME280;70716;50.074;14.496;2023-07-20T02:59:14;98553.34;;;16.80;67.47
81243;BME280;70716;50.074;14.496;2023-07-20T03:01:39;98547.41;;;16.78;67.34
81243;BME280;70716;50.074;14.496;2023-07-20T03:04:07;98546.56;;;16.74;67.65
81243;BME280;70716;50.074;14.496;2023-07-20T03:06:39;98546.50;;;16.70;67.31
81243;BME280;70716;50.074;14.496;2023-07-20T03:09:04;98552.00;;;16.70;67.70
81243;BME280;70716;50.074;14.496;2023-07-20T03:11:30;98547.22;;;16.67;67.37
81243;BME280;70716;50.074;14.496;2023-07-20T03:13:55;98557.63;;;16.77;67.30
81243;BME280;70716;50.074;14.496;2023-07-20T03:16:23;98548.41;;;16.66;67.42
81243;BME280;70716;50.074;14.496;2023-07-20T03:18:52;98561.78;;;16.68;67.47
81243;BME280;70716;50.074;14.496;2023-07-20T03:21:17;98558.13;;;16.64;68.15
81243;BME280;70716;50.074;14.496;2023-07-20T03:23:44;98563.22;;;16.62;67.98
81243;BME280;70716;50.074;14.496;2023-07-20T03:26:10;98558.50;;;16.62;68.17
81243;BME280;70716;50.074;14.496;2023-07-20T03:28:38;98566.06;;;16.65;67.50
81243;BME280;70716;50.074;14.496;2023-07-20T03:31:05;98564.19;;;16.69;67.46
81243;BME280;70716;50.074;14.496;2023-07-20T03:33:31;98562.69;;;16.75;67.39
81243;BME280;70716;50.074;14.496;2023-07-20T03:35:57;98551.75;;;16.79;67.24
81243;BME280;70716;50.074;14.496;2023-07-20T03:38:24;98563.88;;;16.74;67.60
81243;BME280;70716;50.074;14.496;2023-07-20T03:43:16;98562.47;;;16.84;67.30
81243;BME280;70716;50.074;14.496;2023-07-20T03:45:41;98567.75;;;16.93;67.25
81243;BME280;70716;50.074;14.496;2023-07-20T03:48:07;98561.94;;;16.98;66.84
81243;BME280;70716;50.074;14.496;2023-07-20T03:50:32;98561.34;;;17.08;66.52
81243;BME280;70716;50.074;14.496;2023-07-20T03:52:58;98565.63;;;17.05;67.29
81243;BME280;70716;50.074;14.496;2023-07-20T03:55:23;98571.94;;;17.06;67.68
81243;BME280;70716;50.074;14.496;2023-07-20T03:57:49;98570.59;;;17.19;66.51
81243;BME280;70716;50.074;14.496;2023-07-20T04:00:16;98572.00;;;17.32;66.03
81243;BME280;70716;50.074;14.496;2023-07-20T04:02:41;98581.16;;;17.40;65.40
81243;BME280;70716;50.074;14.496;2023-07-20T04:05:07;98581.94;;;17.40;65.20
81243;BME280;70716;50.074;14.496;2023-07-20T04:07:32;98576.13;;;17.45;66.04
81243;BME280;70716;50.074;14.496;2023-07-20T04:09:57;98577.25;;;17.41;65.36
81243;BME280;70716;50.074;14.496;2023-07-20T04:12:24;98583.13;;;17.39;65.26
81243;BME280;70716;50.074;14.496;2023-07-20T04:14:51;98586.00;;;17.46;64.77
81243;BME280;70716;50.074;14.496;2023-07-20T04:17:17;98585.75;;;17.55;65.19
81243;BME280;70716;50.074;14.496;2023-07-20T04:19:42;98584.03;;;17.47;65.86
81243;BME280;70716;50.074;14.496;2023-07-20T04:22:08;98596.47;;;17.37;65.20
81243;BME280;70716;50.074;14.496;2023-07-20T04:24:33;98594.13;;;17.39;65.53
81243;BME280;70716;50.074;14.496;2023-07-20T04:26:58;98594.94;;;17.40;65.07
81243;BME280;70716;50.074;14.496;2023-07-20T04:29:24;98589.53;;;17.47;64.95
81243;BME280;70716;50.074;14.496;2023-07-20T04:31:50;98588.06;;;17.53;64.74
81243;BME280;70716;50.074;14.496;2023-07-20T04:34:18;98592.91;;;17.60;64.73
81243;BME280;70716;50.074;14.496;2023-07-20T04:36:43;98581.72;;;17.49;64.32
81243;BME280;70716;50.074;14.496;2023-07-20T04:39:10;98587.81;;;17.62;64.40
81243;BME280;70716;50.074;14.496;2023-07-20T04:41:35;98590.66;;;17.65;64.29
81243;BME280;70716;50.074;14.496;2023-07-20T04:44:01;98589.13;;;17.68;64.70
81243;BME280;70716;50.074;14.496;2023-07-20T04:46:26;98586.00;;;17.69;64.25
81243;BME280;70716;50.074;14.496;2023-07-20T04:48:51;98586.94;;;17.77;64.09
81243;BME280;70716;50.074;14.496;2023-07-20T04:51:17;98601.25;;;17.86;64.00
81243;BME280;70716;50.074;14.496;2023-07-20T04:53:51;98596.41;;;17.79;64.81
81243;BME280;70716;50.074;14.496;2023-07-20T04:56:17;98599.22;;;17.83;65.04
81243;BME280;70716;50.074;14.496;2023-07-20T04:58:42;98601.84;;;18.02;63.35
81243;BME280;70716;50.074;14.496;2023-07-20T05:01:08;98602.38;;;18.11;63.25
81243;BME280;70716;50.074;14.496;2023-07-20T05:03:33;98601.69;;;18.18;63.14
81243;BME280;70716;50.074;14.496;2023-07-20T05:05:59;98601.63;;;18.41;62.07
81243;BME280;70716;50.074;14.496;2023-07-20T05:08:24;98595.59;;;18.62;61.60
81243;BME280;70716;50.074;14.496;2023-07-20T05:10:50;98593.44;;;18.78;61.33
81243;BME280;70716;50.074;14.496;2023-07-20T05:13:16;98592.50;;;19.00;60.30
81243;BME280;70716;50.074;14.496;2023-07-20T05:15:44;98607.72;;;19.24;59.23
81243;BME280;70716;50.074;14.496;2023-07-20T05:18:13;98600.84;;;19.48;58.44
81243;BME280;70716;50.074;14.496;2023-07-20T05:20:38;98605.75;;;19.65;58.14
81243;BME280;70716;50.074;14.496;2023-07-20T05:23:04;98605.28;;;19.53;57.71
81243;BME280;70716;50.074;14.496;2023-07-20T05:25:30;98607.84;;;19.35;58.45
81243;BME280;70716;50.074;14.496;2023-07-20T05:27:56;98606.16;;;19.64;58.07
81243;BME280;70716;50.074;14.496;2023-07-20T05:30:22;98618.66;;;19.98;57.43
81243;BME280;70716;50.074;14.496;2023-07-20T05:32:47;98611.63;;;20.11;56.73
81243;BME280;70716;50.074;14.496;2023-07-20T05:35:17;98614.78;;;20.10;56.32
81243;BME280;70716;50.074;14.496;2023-07-20T05:37:45;98612.50;;;20.26;56.17
81243;BME280;70716;50.074;14.496;2023-07-20T05:40:12;98613.22;;;20.13;56.65
81243;BME280;70716;50.074;14.496;2023-07-20T05:42:38;98616.88;;;19.72;57.31
81243;BME280;70716;50.074;14.496;2023-07-20T05:45:05;98607.72;;;21.06;54.18
81243;BME280;70716;50.074;14.496;2023-07-20T05:47:31;98612.16;;;21.39;53.11
81243;BME280;70716;50.074;14.496;2023-07-20T05:49:58;98610.59;;;22.02;50.56
81243;BME280;70716;50.074;14.496;2023-07-20T05:52:25;98606.88;;;22.66;49.19
81243;BME280;70716;50.074;14.496;2023-07-20T05:54:50;98605.47;;;22.04;50.66
81243;BME280;70716;50.074;14.496;2023-07-20T05:57:16;98613.78;;;21.58;51.77
81243;BME280;70716;50.074;14.496;2023-07-20T05:59:41;98618.91;;;21.46;52.27
81243;BME280;70716;50.074;14.496;2023-07-20T06:02:10;98614.56;;;21.69;51.95
81243;BME280;70716;50.074;14.496;2023-07-20T06:04:36;98625.59;;;22.48;49.67
81243;BME280;70716;50.074;14.496;2023-07-20T06:07:02;98621.13;;;23.55;47.29
81243;BME280;70716;50.074;14.496;2023-07-20T06:09:27;98627.03;;;22.95;47.35
81243;BME280;70716;50.074;14.496;2023-07-20T06:11:53;98635.44;;;23.54;47.07
81243;BME280;70716;50.074;14.496;2023-07-20T06:14:22;98633.63;;;23.19;46.93
81243;BME280;70716;50.074;14.496;2023-07-20T06:16:47;98631.03;;;23.63;46.82
81243;BME280;70716;50.074;14.496;2023-07-20T06:19:13;98635.59;;;24.70;43.46
81243;BME280;70716;50.074;14.496;2023-07-20T06:21:39;98629.97;;;23.36;46.16
81243;BME280;70716;50.074;14.496;2023-07-20T06:24:06;98629.09;;;22.62;47.94
81243;BME280;70716;50.074;14.496;2023-07-20T06:26:31;98633.81;;;23.60;45.98
81243;BME280;70716;50.074;14.496;2023-07-20T06:29:03;98624.88;;;24.27;43.30
81243;BME280;70716;50.074;14.496;2023-07-20T06:31:36;98626.47;;;24.66;42.68
81243;BME280;70716;50.074;14.496;2023-07-20T06:34:04;98634.69;;;25.11;41.82
81243;BME280;70716;50.074;14.496;2023-07-20T06:36:32;98631.84;;;26.42;38.45
81243;BME280;70716;50.074;14.496;2023-07-20T06:38:58;98634.94;;;26.00;38.49
81243;BME280;70716;50.074;14.496;2023-07-20T06:41:23;98631.56;;;25.36;39.31
81243;BME280;70716;50.074;14.496;2023-07-20T06:43:52;98624.38;;;26.35;37.78
81243;BME280;70716;50.074;14.496;2023-07-20T06:46:25;98629.34;;;26.47;37.33
81243;BME280;70716;50.074;14.496;2023-07-20T06:48:51;98624.97;;;26.66;36.96
81243;BME280;70716;50.074;14.496;2023-07-20T06:51:19;98614.06;;;25.85;38.83
81243;BME280;70716;50.074;14.496;2023-07-20T06:53:45;98621.09;;;25.70;39.53
81243;BME280;70716;50.074;14.496;2023-07-20T06:56:11;98615.16;;;26.78;37.34
81243;BME280;70716;50.074;14.496;2023-07-20T06:58:36;98613.94;;;25.92;39.58
81243;BME280;70716;50.074;14.496;2023-07-20T07:01:06;98614.91;;;25.01;40.09
81243;BME280;70716;50.074;14.496;2023-07-20T07:03:35;98623.03;;;24.85;40.45
81243;BME280;70716;50.074;14.496;2023-07-20T07:06:05;98623.47;;;25.95;38.44
81243;BME280;70716;50.074;14.496;2023-07-20T07:08:30;98619.59;;;26.36;37.87
81243;BME280;70716;50.074;14.496;2023-07-20T07:10:55;98617.91;;;25.95;38.05
81243;BME280;70716;50.074;14.496;2023-07-20T07:13:21;98626.16;;;25.48;40.16
81243;BME280;70716;50.074;14.496;2023-07-20T07:15:46;98624.03;;;25.02;40.00
81243;BME280;70716;50.074;14.496;2023-07-20T07:18:12;98615.16;;;25.41;39.93
81243;BME280;70716;50.074;14.496;2023-07-20T07:20:37;98627.50;;;25.67;39.15
81243;BME280;70716;50.074;14.496;2023-07-20T07:23:03;98620.72;;;26.15;37.79
81243;BME280;70716;50.074;14.496;2023-07-20T07:25:28;98629.22;;;25.57;38.12
81243;BME280;70716;50.074;14.496;2023-07-20T07:27:54;98624.13;;;25.52;37.89
81243;BME280;70716;50.074;14.496;2023-07-20T07:30:20;98639.56;;;25.33;38.14
81243;BME280;70716;50.074;14.496;2023-07-20T07:32:46;98625.63;;;25.33;38.69
81243;BME280;70716;50.074;14.496;2023-07-20T07:35:11;98633.44;;;25.15;39.79
81243;BME280;70716;50.074;14.496;2023-07-20T07:37:37;98640.13;;;24.87;40.51
81243;BME280;70716;50.074;14.496;2023-07-20T07:40:03;98631.59;;;24.33;41.10
81243;BME280;70716;50.074;14.496;2023-07-20T07:42:31;98631.44;;;23.62;43.60
81243;BME280;70716;50.074;14.496;2023-07-20T07:44:56;98637.81;;;23.59;42.15
81243;BME280;70716;50.074;14.496;2023-07-20T07:47:22;98630.88;;;23.19;43.83
81243;BME280;70716;50.074;14.496;2023-07-20T07:49:50;98633.88;;;24.01;41.66
81243;BME280;70716;50.074;14.496;2023-07-20T07:52:16;98634.56;;;25.21;39.11
81243;BME280;70716;50.074;14.496;2023-07-20T07:54:41;98637.53;;;25.64;37.48
81243;BME280;70716;50.074;14.496;2023-07-20T07:57:07;98627.59;;;25.87;37.89
81243;BME280;70716;50.074;14.496;2023-07-20T07:59:32;98639.84;;;26.40;36.59
81243;BME280;70716;50.074;14.496;2023-07-20T08:02:02;98631.19;;;25.87;37.76
81243;BME280;70716;50.074;14.496;2023-07-20T08:04:28;98641.25;;;26.51;36.73
81243;BME280;70716;50.074;14.496;2023-07-20T08:06:53;98632.13;;;26.87;36.37
81243;BME280;70716;50.074;14.496;2023-07-20T08:09:18;98637.88;;;25.66;36.82
81243;BME280;70716;50.074;14.496;2023-07-20T08:11:44;98642.94;;;24.53;39.20
81243;BME280;70716;50.074;14.496;2023-07-20T08:14:09;98637.28;;;24.19;40.99
81243;BME280;70716;50.074;14.496;2023-07-20T08:16:34;98636.31;;;23.95;41.61
81243;BME280;70716;50.074;14.496;2023-07-20T08:19:00;98641.34;;;23.66;42.32
81243;BME280;70716;50.074;14.496;2023-07-20T08:21:25;98649.03;;;24.41;41.36
81243;BME280;70716;50.074;14.496;2023-07-20T08:23:51;98636.19;;;22.88;43.66
81243;BME280;70716;50.074;14.496;2023-07-20T08:26:23;98633.09;;;22.58;44.38
81243;BME280;70716;50.074;14.496;2023-07-20T08:28:50;98638.75;;;22.04;45.90
81243;BME280;70716;50.074;14.496;2023-07-20T08:31:15;98636.63;;;22.80;45.43
81243;BME280;70716;50.074;14.496;2023-07-20T08:33:41;98641.13;;;23.29;43.04
81243;BME280;70716;50.074;14.496;2023-07-20T08:36:10;98636.41;;;23.22;44.23
81243;BME280;70716;50.074;14.496;2023-07-20T08:38:36;98645.44;;;22.50;44.06
81243;BME280;70716;50.074;14.496;2023-07-20T08:41:01;98640.72;;;22.11;45.77
81243;BME280;70716;50.074;14.496;2023-07-20T08:43:28;98647.47;;;22.21;45.88
81243;BME280;70716;50.074;14.496;2023-07-20T08:45:56;98646.66;;;22.27;45.86
81243;BME280;70716;50.074;14.496;2023-07-20T08:48:23;98645.44;;;22.50;45.49
81243;BME280;70716;50.074;14.496;2023-07-20T08:50:51;98654.47;;;22.79;44.55
81243;BME280;70716;50.074;14.496;2023-07-20T08:53:17;98652.28;;;23.22;43.37
81243;BME280;70716;50.074;14.496;2023-07-20T08:55:44;98656.81;;;23.67;41.36
81243;BME280;70716;50.074;14.496;2023-07-20T08:58:13;98656.25;;;24.35;39.99
81243;BME280;70716;50.074;14.496;2023-07-20T09:00:43;98660.00;;;24.55;40.61
81243;BME280;70716;50.074;14.496;2023-07-20T09:03:11;98647.88;;;24.35;40.95
81243;BME280;70716;50.074;14.496;2023-07-20T09:05:39;98644.13;;;24.86;40.03
81243;BME280;70716;50.074;14.496;2023-07-20T09:08:07;98652.34;;;25.00;38.80
81243;BME280;70716;50.074;14.496;2023-07-20T09:10:32;98647.72;;;24.53;38.48
81243;BME280;70716;50.074;14.496;2023-07-20T09:12:58;98647.28;;;24.88;38.07
81243;BME280;70716;50.074;14.496;2023-07-20T09:15:24;98656.16;;;25.14;38.39
81243;BME280;70716;50.074;14.496;2023-07-20T09:17:50;98650.19;;;24.44;38.92
81243;BME280;70716;50.074;14.496;2023-07-20T09:20:18;98645.41;;;24.44;39.12
81243;BME280;70716;50.074;14.496;2023-07-20T09:22:43;98657.44;;;23.89;40.51
81243;BME280;70716;50.074;14.496;2023-07-20T09:25:16;98642.69;;;23.37;41.46
81243;BME280;70716;50.074;14.496;2023-07-20T09:27:46;98643.91;;;23.29;42.13
81243;BME280;70716;50.074;14.496;2023-07-20T09:30:16;98640.41;;;23.18;42.27
81243;BME280;70716;50.074;14.496;2023-07-20T09:35:21;98651.09;;;23.23;41.73
81243;BME280;70716;50.074;14.496;2023-07-20T09:38:01;98640.16;;;22.87;42.07
81243;BME280;70716;50.074;14.496;2023-07-20T09:40:27;98633.03;;;22.83;42.33
81243;BME280;70716;50.074;14.496;2023-07-20T09:42:54;98633.59;;;23.29;41.75
81243;BME280;70716;50.074;14.496;2023-07-20T09:45:30;98625.00;;;23.68;40.51
81243;BME280;70716;50.074;14.496;2023-07-20T09:48:04;98637.91;;;23.93;40.10
81243;BME280;70716;50.074;14.496;2023-07-20T09:50:30;98632.81;;;24.29;39.30
81243;BME280;70716;50.074;14.496;2023-07-20T09:52:56;98632.47;;;24.64;38.49
81243;BME280;70716;50.074;14.496;2023-07-20T09:55:22;98641.50;;;24.76;36.98
81243;BME280;70716;50.074;14.496;2023-07-20T09:57:49;98630.91;;;24.22;37.73
81243;BME280;70716;50.074;14.496;2023-07-20T10:00:17;98636.75;;;24.35;37.87
81243;BME280;70716;50.074;14.496;2023-07-20T10:02:45;98631.63;;;24.30;37.91
81243;BME280;70716;50.074;14.496;2023-07-20T10:05:12;98634.22;;;24.07;38.22
81243;BME280;70716;50.074;14.496;2023-07-20T10:07:51;98627.66;;;24.27;37.85
81243;BME280;70716;50.074;14.496;2023-07-20T10:10:18;98636.00;;;24.68;36.91
81243;BME280;70716;50.074;14.496;2023-07-20T10:12:47;98631.72;;;24.91;35.95
81243;BME280;70716;50.074;14.496;2023-07-20T10:15:29;98628.22;;;25.17;35.61
81243;BME280;70716;50.074;14.496;2023-07-20T10:18:12;98627.53;;;25.10;35.46
81243;BME280;70716;50.074;14.496;2023-07-20T10:20:40;98627.78;;;24.54;37.39
81243;BME280;70716;50.074;14.496;2023-07-20T10:23:10;98620.16;;;24.62;36.85
81243;BME280;70716;50.074;14.496;2023-07-20T10:25:37;98617.06;;;25.17;36.47
81243;BME280;70716;50.074;14.496;2023-07-20T10:28:05;98623.47;;;24.84;35.80
81243;BME280;70716;50.074;14.496;2023-07-20T10:30:32;98625.31;;;23.78;37.04
81243;BME280;70716;50.074;14.496;2023-07-20T10:32:59;98621.53;;;23.57;37.51
81243;BME280;70716;50.074;14.496;2023-07-20T10:35:28;98621.88;;;24.08;37.71
81243;BME280;70716;50.074;14.496;2023-07-20T10:38:01;98617.00;;;24.19;36.38
81243;BME280;70716;50.074;14.496;2023-07-20T10:43:04;98619.31;;;24.65;35.82
81243;BME280;70716;50.074;14.496;2023-07-20T10:48:19;98632.75;;;25.08;35.30
81243;BME280;70716;50.074;14.496;2023-07-20T10:51:13;98624.50;;;24.97;34.84
81243;BME280;70716;50.074;14.496;2023-07-20T10:53:42;98630.66;;;25.15;34.76
81243;BME280;70716;50.074;14.496;2023-07-20T10:56:19;98625.16;;;25.08;34.96
81243;BME280;70716;50.074;14.496;2023-07-20T10:58:45;98636.00;;;25.02;34.16
81243;BME280;70716;50.074;14.496;2023-07-20T11:01:18;98625.34;;;23.74;36.51
81243;BME280;70716;50.074;14.496;2023-07-20T11:03:49;98633.56;;;23.92;36.92
81243;BME280;70716;50.074;14.496;2023-07-20T11:09:09;98625.25;;;23.88;38.52
81243;BME280;70716;50.074;14.496;2023-07-20T11:11:47;98629.06;;;23.60;38.72
81243;BME280;70716;50.074;14.496;2023-07-20T11:14:26;98626.81;;;23.34;38.92
81243;BME280;70716;50.074;14.496;2023-07-20T11:16:52;98617.00;;;23.74;38.72
81243;BME280;70716;50.074;14.496;2023-07-20T11:19:23;98618.25;;;24.14;37.53
81243;BME280;70716;50.074;14.496;2023-07-20T11:21:56;98618.50;;;24.30;36.31
81243;BME280;70716;50.074;14.496;2023-07-20T11:24:22;98620.97;;;24.21;36.94
81243;BME280;70716;50.074;14.496;2023-07-20T11:26:49;98613.72;;;24.31;36.20
81243;BME280;70716;50.074;14.496;2023-07-20T11:29:19;98619.97;;;24.42;36.23
81243;BME280;70716;50.074;14.496;2023-07-20T11:31:48;98614.50;;;24.69;36.31
81243;BME280;70716;50.074;14.496;2023-07-20T11:34:21;98618.47;;;25.02;35.83
81243;BME280;70716;50.074;14.496;2023-07-20T11:36:49;98613.81;;;25.22;35.19
81243;BME280;70716;50.074;14.496;2023-07-20T11:39:19;98606.88;;;25.34;35.61
81243;BME280;70716;50.074;14.496;2023-07-20T11:41:49;98599.53;;;25.44;34.77
81243;BME280;70716;50.074;14.496;2023-07-20T11:44:19;98595.69;;;25.38;34.67
81243;BME280;70716;50.074;14.496;2023-07-20T11:46:49;98597.16;;;24.54;34.87
81243;BME280;70716;50.074;14.496;2023-07-20T11:49:14;98598.66;;;24.62;35.49
81243;BME280;70716;50.074;14.496;2023-07-20T11:51:40;98594.00;;;24.15;36.20
81243;BME280;70716;50.074;14.496;2023-07-20T11:54:07;98598.69;;;24.21;37.24
81243;BME280;70716;50.074;14.496;2023-07-20T11:56:33;98593.25;;;24.48;35.51
81243;BME280;70716;50.074;14.496;2023-07-20T11:58:59;98591.16;;;24.56;34.82
81243;BME280;70716;50.074;14.496;2023-07-20T12:01:26;98588.88;;;24.81;34.65
81243;BME280;70716;50.074;14.496;2023-07-20T12:03:55;98587.72;;;25.09;34.35
81243;BME280;70716;50.074;14.496;2023-07-20T12:06:25;98585.28;;;25.65;33.53
81243;BME280;70716;50.074;14.496;2023-07-20T12:08:55;98585.22;;;25.69;32.80
81243;BME280;70716;50.074;14.496;2023-07-20T12:11:38;98575.00;;;25.85;32.77
81243;BME280;70716;50.074;14.496;2023-07-20T12:14:06;98562.38;;;25.77;32.43
81243;BME280;70716;50.074;14.496;2023-07-20T12:16:32;98572.50;;;25.91;32.50
81243;BME280;70716;50.074;14.496;2023-07-20T12:21:27;98573.94;;;25.99;32.14
81243;BME280;70716;50.074;14.496;2023-07-20T12:23:56;98579.59;;;25.72;32.50
81243;BME280;70716;50.074;14.496;2023-07-20T12:26:23;98572.56;;;25.64;33.24
81243;BME280;70716;50.074;14.496;2023-07-20T12:28:51;98567.47;;;25.32;32.23
81243;BME280;70716;50.074;14.496;2023-07-20T12:31:18;98571.31;;;25.15;32.73
81243;BME280;70716;50.074;14.496;2023-07-20T12:33:44;98570.31;;;25.28;33.40
81243;BME280;70716;50.074;14.496;2023-07-20T12:36:09;98564.00;;;25.24;33.14
81243;BME280;70716;50.074;14.496;2023-07-20T12:38:37;98571.72;;;25.13;34.28
81243;BME280;70716;50.074;14.496;2023-07-20T12:41:03;98566.03;;;25.20;34.78
81243;BME280;70716;50.074;14.496;2023-07-20T12:43:29;98567.81;;;25.07;35.14
81243;BME280;70716;50.074;14.496;2023-07-20T12:45:55;98564.75;;;25.52;34.67
81243;BME280;70716;50.074;14.496;2023-07-20T12:48:24;98567.00;;;25.60;33.76
81243;BME280;70716;50.074;14.496;2023-07-20T12:50:49;98572.66;;;24.73;34.27
81243;BME280;70716;50.074;14.496;2023-07-20T12:53:15;98563.84;;;24.06;35.97
81243;BME280;70716;50.074;14.496;2023-07-20T12:55:40;98571.56;;;24.29;35.95
81243;BME280;70716;50.074;14.496;2023-07-20T12:58:07;98574.16;;;24.47;34.80
81243;BME280;70716;50.074;14.496;2023-07-20T13:00:33;98567.50;;;24.71;34.89
81243;BME280;70716;50.074;14.496;2023-07-20T13:03:01;98563.03;;;24.77;34.49
81243;BME280;70716;50.074;14.496;2023-07-20T13:05:33;98560.41;;;24.97;34.05
81243;BME280;70716;50.074;14.496;2023-07-20T13:07:58;98562.19;;;25.11;33.91
81243;BME280;70716;50.074;14.496;2023-07-20T13:10:27;98563.84;;;25.58;32.87